sensor_id;sensor_type;location;lat;lon;timestamp;pressure;altitude;pressure_sealevel;temperature;humidity
22872;BME280;11603;44.910;8.630;2023-01-28T00:02:15;100640.28;;;5.20;100.00
22872;BME280;11603;44.910;8.630;2023-01-28T00:04:40;100655.34;;;5.19;100.00
22872;BME280;11603;44.910;8.630;2023-01-28T00:07:06;100647.63;;;5.13;100.00
22872;BME280;11603;44.910;8.630;2023-01-28T00:09:31;100645.97;;;5.10;100.00
22872;BME280;11603;44.910;8.630;2023-01-28T00:11:57;100647.69;;;5.11;100.00
22872;BME280;11603;44.910;8.630;2023-01-28T00:14:23;100644.81;;;5.18;100.00
22872;BME280;11603;44.910;8.630;2023-01-28T00:16:49;100649.97;;;5.21;100.00
22872;BME280;11603;44.910;8.630;2023-01-28T00:19:14;100647.47;;;5.18;100.00
22872;BME280;11603;44.910;8.630;2023-01-28T00:21:40;100654.88;;;5.08;100.00
22872;BME280;11603;44.910;8.630;2023-01-28T00:24:06;100655.06;;;5.03;100.00
22872;BME280;11603;44.910;8.630;2023-01-28T00:26:34;100657.53;;;5.08;100.00
22872;BME280;11603;44.910;8.630;2023-01-28T00:28:59;100657.47;;;5.09;100.00
22872;BME280;11603;44.910;8.630;2023-01-28T00:31:26;100647.69;;;5.11;100.00
22872;BME280;11603;44.910;8.630;2023-01-28T00:33:53;100652.19;;;5.09;100.00
22872;BME280;11603;44.910;8.630;2023-01-28T00:36:20;100652.22;;;5.08;100.00
22872;BME280;11603;44.910;8.630;2023-01-28T00:38:54;100658.41;;;5.08;100.00
22872;BME280;11603;44.910;8.630;2023-01-28T00:41:22;100662.34;;;4.98;100.00
22872;BME280;11603;44.910;8.630;2023-01-28T00:43:50;100662.97;;;4.82;100.00
22872;BME280;11603;44.910;8.630;2023-01-28T00:46:16;100661.97;;;4.61;100.00
22872;BME280;11603;44.910;8.630;2023-01-28T00:48:43;100662.47;;;4.47;100.00
22872;BME280;11603;44.910;8.630;2023-01-28T00:51:10;100658.25;;;4.42;100.00
22872;BME280;11603;44.910;8.630;2023-01-28T00:53:36;100655.56;;;4.43;100.00
22872;BME280;11603;44.910;8.630;2023-01-28T00:56:03;100651.38;;;4.38;100.00
22872;BME280;11603;44.910;8.630;2023-01-28T00:58:31;100659.25;;;4.39;100.00
22872;BME280;11603;44.910;8.630;2023-01-28T01:01:12;100660.88;;;4.43;100.00
22872;BME280;11603;44.910;8.630;2023-01-28T01:03:41;100658.97;;;4.47;100.00
22872;BME280;11603;44.910;8.630;2023-01-28T01:06:07;100659.97;;;4.44;100.00
22872;BME280;11603;44.910;8.630;2023-01-28T01:08:33;100658.88;;;4.50;100.00
22872;BME280;11603;44.910;8.630;2023-01-28T01:11:01;100664.00;;;4.54;100.00
22872;BME280;11603;44.910;8.630;2023-01-28T01:13:26;100659.72;;;4.50;100.00
22872;BME280;11603;44.910;8.630;2023-01-28T01:16:08;100671.47;;;4.43;100.00
22872;BME280;11603;44.910;8.630;2023-01-28T01:18:35;100673.56;;;4.34;100.00
22872;BME280;11603;44.910;8.630;2023-01-28T01:21:01;100674.03;;;4.20;100.00
22872;BME280;11603;44.910;8.630;2023-01-28T01:23:28;100689.19;;;4.16;100.00
22872;BME280;11603;44.910;8.630;2023-01-28T01:25:55;100682.09;;;4.17;100.00
22872;BME280;11603;44.910;8.630;2023-01-28T01:28:22;100678.44;;;4.21;100.00
22872;BME280;11603;44.910;8.630;2023-01-28T01:30:48;100685.78;;;4.13;100.00
22872;BME280;11603;44.910;8.630;2023-01-28T01:33:13;100684.09;;;4.10;100.00
22872;BME280;11603;44.910;8.630;2023-01-28T01:35:39;100686.91;;;4.06;100.00
22872;BME280;11603;44.910;8.630;2023-01-28T01:38:05;100695.91;;;4.00;100.00
22872;BME280;11603;44.910;8.630;2023-01-28T01:40:31;100694.25;;;3.98;100.00
22872;BME280;11603;44.910;8.630;2023-01-28T01:42:59;100702.09;;;3.99;100.00
22872;BME280;11603;44.910;8.630;2023-01-28T01:45:25;100709.19;;;3.99;100.00
22872;BME280;11603;44.910;8.630;2023-01-28T01:50:22;100702.38;;;3.92;100.00
22872;BME280;11603;44.910;8.630;2023-01-28T01:52:54;100699.97;;;3.84;100.00
22872;BME280;11603;44.910;8.630;2023-01-28T01:55:23;100696.09;;;3.68;100.00
22872;BME280;11603;44.910;8.630;2023-01-28T01:57:50;100707.81;;;3.61;100.00
22872;BME280;11603;44.910;8.630;2023-01-28T02:00:18;100707.91;;;3.56;100.00
22872;BME280;11603;44.910;8.630;2023-01-28T02:02:48;100708.06;;;3.52;100.00
22872;BME280;11603;44.910;8.630;2023-01-28T02:05:16;100712.44;;;3.53;100.00
22872;BME280;11603;44.910;8.630;2023-01-28T02:07:43;100704.72;;;3.47;100.00
22872;BME280;11603;44.910;8.630;2023-01-28T02:10:10;100709.66;;;3.29;100.00
22872;BME280;11603;44.910;8.630;2023-01-28T02:12:40;100697.25;;;3.31;100.00
22872;BME280;11603;44.910;8.630;2023-01-28T02:15:10;100703.38;;;3.33;100.00
22872;BME280;11603;44.910;8.630;2023-01-28T02:17:36;100695.28;;;3.38;100.00
22872;BME280;11603;44.910;8.630;2023-01-28T02:20:08;100698.31;;;3.54;100.00
22872;BME280;11603;44.910;8.630;2023-01-28T02:28:49;100685.88;;;3.29;100.00
22872;BME280;11603;44.910;8.630;2023-01-28T02:31:27;100682.41;;;3.27;100.00
22872;BME280;11603;44.910;8.630;2023-01-28T02:36:53;100687.91;;;3.49;100.00
22872;BME280;11603;44.910;8.630;2023-01-28T02:39:26;100680.00;;;3.48;100.00
22872;BME280;11603;44.910;8.630;2023-01-28T02:42:10;100682.59;;;3.49;100.00
22872;BME280;11603;44.910;8.630;2023-01-28T02:44:38;100683.47;;;3.50;100.00
22872;BME280;11603;44.910;8.630;2023-01-28T02:47:09;100691.22;;;3.56;100.00
22872;BME280;11603;44.910;8.630;2023-01-28T02:49:55;100705.00;;;3.65;100.00
22872;BME280;11603;44.910;8.630;2023-01-28T03:02:20;100710.28;;;3.65;100.00
22872;BME280;11603;44.910;8.630;2023-01-28T03:07:33;100710.03;;;3.73;100.00
22872;BME280;11603;44.910;8.630;2023-01-28T03:10:03;100709.66;;;3.85;100.00
22872;BME280;11603;44.910;8.630;2023-01-28T03:12:34;100712.03;;;3.93;100.00
22872;BME280;11603;44.910;8.630;2023-01-28T03:15:23;100711.97;;;3.94;100.00
22872;BME280;11603;44.910;8.630;2023-01-28T03:18:12;100713.50;;;3.75;100.00
22872;BME280;11603;44.910;8.630;2023-01-28T03:23:57;100702.56;;;3.59;100.00
22872;BME280;11603;44.910;8.630;2023-01-28T03:29:42;100713.03;;;3.62;100.00
22872;BME280;11603;44.910;8.630;2023-01-28T03:32:30;100715.75;;;3.61;100.00
22872;BME280;11603;44.910;8.630;2023-01-28T03:35:17;100707.69;;;3.64;100.00
22872;BME280;11603;44.910;8.630;2023-01-28T03:38:04;100718.09;;;3.70;100.00
22872;BME280;11603;44.910;8.630;2023-01-28T03:40:55;100722.69;;;3.63;100.00
22872;BME280;11603;44.910;8.630;2023-01-28T03:43:21;100726.31;;;3.61;100.00
22872;BME280;11603;44.910;8.630;2023-01-28T03:45:48;100719.28;;;3.60;100.00
22872;BME280;11603;44.910;8.630;2023-01-28T03:48:18;100718.59;;;3.53;100.00
22872;BME280;11603;44.910;8.630;2023-01-28T03:50:44;100728.16;;;3.57;100.00
22872;BME280;11603;44.910;8.630;2023-01-28T03:53:10;100729.78;;;3.61;100.00
22872;BME280;11603;44.910;8.630;2023-01-28T03:55:50;100732.16;;;3.42;100.00
22872;BME280;11603;44.910;8.630;2023-01-28T03:58:17;100739.91;;;3.49;100.00
22872;BME280;11603;44.910;8.630;2023-01-28T04:00:44;100739.34;;;3.39;100.00
22872;BME280;11603;44.910;8.630;2023-01-28T04:03:13;100742.78;;;3.41;100.00
22872;BME280;11603;44.910;8.630;2023-01-28T04:05:59;100747.88;;;3.47;100.00
22872;BME280;11603;44.910;8.630;2023-01-28T04:08:31;100753.91;;;3.52;100.00
22872;BME280;11603;44.910;8.630;2023-01-28T04:11:17;100759.97;;;3.56;100.00
22872;BME280;11603;44.910;8.630;2023-01-28T04:13:47;100757.44;;;3.51;100.00
22872;BME280;11603;44.910;8.630;2023-01-28T04:16:16;100760.00;;;3.54;100.00
22872;BME280;11603;44.910;8.630;2023-01-28T04:18:42;100763.38;;;3.59;100.00
22872;BME280;11603;44.910;8.630;2023-01-28T04:21:08;100766.06;;;3.58;100.00
22872;BME280;11603;44.910;8.630;2023-01-28T04:23:34;100773.38;;;3.50;100.00
22872;BME280;11603;44.910;8.630;2023-01-28T04:26:00;100780.28;;;3.54;100.00
22872;BME280;11603;44.910;8.630;2023-01-28T04:28:26;100775.22;;;3.46;100.00
22872;BME280;11603;44.910;8.630;2023-01-28T04:30:53;100774.47;;;3.42;100.00
22872;BME280;11603;44.910;8.630;2023-01-28T04:33:34;100779.84;;;3.39;100.00
22872;BME280;11603;44.910;8.630;2023-01-28T04:36:09;100782.72;;;3.32;100.00
22872;BME280;11603;44.910;8.630;2023-01-28T04:39:01;100781.81;;;3.33;100.00
22872;BME280;11603;44.910;8.630;2023-01-28T04:41:36;100782.56;;;3.36;100.00
22872;BME280;11603;44.910;8.630;2023-01-28T04:44:27;100790.38;;;3.41;100.00
22872;BME280;11603;44.910;8.630;2023-01-28T04:47:08;100786.75;;;3.45;100.00
22872;BME280;11603;44.910;8.630;2023-01-28T04:49:48;100795.28;;;3.53;100.00
22872;BME280;11603;44.910;8.630;2023-01-28T04:52:35;100795.97;;;3.60;100.00
22872;BME280;11603;44.910;8.630;2023-01-28T04:55:21;100801.09;;;3.66;100.00
22872;BME280;11603;44.910;8.630;2023-01-28T04:57:46;100806.59;;;3.58;100.00
22872;BME280;11603;44.910;8.630;2023-01-28T05:00:13;100800.69;;;3.50;100.00
22872;BME280;11603;44.910;8.630;2023-01-28T05:02:38;100808.97;;;3.38;100.00
22872;BME280;11603;44.910;8.630;2023-01-28T05:05:04;100808.09;;;3.37;100.00
22872;BME280;11603;44.910;8.630;2023-01-28T05:07:53;100817.59;;;3.45;100.00
22872;BME280;11603;44.910;8.630;2023-01-28T05:10:20;100813.03;;;3.50;100.00
22872;BME280;11603;44.910;8.630;2023-01-28T05:12:47;100805.00;;;3.53;100.00
22872;BME280;11603;44.910;8.630;2023-01-28T05:15:16;100807.09;;;3.41;100.00
22872;BME280;11603;44.910;8.630;2023-01-28T05:17:42;100814.13;;;3.42;100.00
22872;BME280;11603;44.910;8.630;2023-01-28T05:20:10;100815.09;;;3.40;100.00
22872;BME280;11603;44.910;8.630;2023-01-28T05:22:37;100816.44;;;3.24;100.00
22872;BME280;11603;44.910;8.630;2023-01-28T05:25:15;100827.09;;;3.21;100.00
22872;BME280;11603;44.910;8.630;2023-01-28T05:27:40;100815.19;;;3.06;100.00
22872;BME280;11603;44.910;8.630;2023-01-28T05:30:06;100822.09;;;3.10;100.00
22872;BME280;11603;44.910;8.630;2023-01-28T05:32:32;100825.66;;;3.09;100.00
22872;BME280;11603;44.910;8.630;2023-01-28T05:34:58;100833.81;;;3.02;100.00
22872;BME280;11603;44.910;8.630;2023-01-28T05:37:24;100824.00;;;3.05;100.00
22872;BME280;11603;44.910;8.630;2023-01-28T05:39:53;100831.16;;;3.02;100.00
22872;BME280;11603;44.910;8.630;2023-01-28T05:42:18;100844.66;;;2.91;100.00
22872;BME280;11603;44.910;8.630;2023-01-28T05:44:47;100838.22;;;3.01;100.00
22872;BME280;11603;44.910;8.630;2023-01-28T05:47:32;100855.81;;;3.02;100.00
22872;BME280;11603;44.910;8.630;2023-01-28T05:50:14;100854.69;;;3.11;100.00
22872;BME280;11603;44.910;8.630;2023-01-28T05:53:04;100859.19;;;3.07;100.00
22872;BME280;11603;44.910;8.630;2023-01-28T05:55:32;100856.56;;;3.07;100.00
22872;BME280;11603;44.910;8.630;2023-01-28T05:57:57;100863.19;;;3.22;100.00
22872;BME280;11603;44.910;8.630;2023-01-28T06:00:25;100859.91;;;3.14;100.00
22872;BME280;11603;44.910;8.630;2023-01-28T06:02:51;100867.13;;;3.07;100.00
22872;BME280;11603;44.910;8.630;2023-01-28T06:05:18;100863.66;;;3.04;100.00
22872;BME280;11603;44.910;8.630;2023-01-28T06:07:47;100870.03;;;2.98;100.00
22872;BME280;11603;44.910;8.630;2023-01-28T06:10:14;100869.38;;;2.88;100.00
22872;BME280;11603;44.910;8.630;2023-01-28T06:12:42;100868.69;;;2.82;100.00
22872;BME280;11603;44.910;8.630;2023-01-28T06:15:34;100871.25;;;2.83;100.00
22872;BME280;11603;44.910;8.630;2023-01-28T06:18:07;100877.06;;;2.97;100.00
22872;BME280;11603;44.910;8.630;2023-01-28T06:20:33;100879.84;;;2.93;100.00
22872;BME280;11603;44.910;8.630;2023-01-28T06:22:59;100881.94;;;2.79;100.00
22872;BME280;11603;44.910;8.630;2023-01-28T06:25:25;100886.75;;;2.63;100.00
22872;BME280;11603;44.910;8.630;2023-01-28T06:27:51;100885.00;;;2.62;100.00
22872;BME280;11603;44.910;8.630;2023-01-28T06:30:16;100886.88;;;2.59;100.00
22872;BME280;11603;44.910;8.630;2023-01-28T06:32:42;100888.66;;;2.58;100.00
22872;BME280;11603;44.910;8.630;2023-01-28T06:35:09;100889.81;;;2.46;100.00
22872;BME280;11603;44.910;8.630;2023-01-28T06:37:35;100890.75;;;2.44;100.00
22872;BME280;11603;44.910;8.630;2023-01-28T06:40:01;100896.09;;;2.41;100.00
22872;BME280;11603;44.910;8.630;2023-01-28T06:42:27;100893.50;;;2.39;100.00
22872;BME280;11603;44.910;8.630;2023-01-28T06:44:52;100902.06;;;2.49;100.00
22872;BME280;11603;44.910;8.630;2023-01-28T06:47:18;100897.59;;;2.52;100.00
22872;BME280;11603;44.910;8.630;2023-01-28T06:49:44;100899.47;;;2.47;100.00
22872;BME280;11603;44.910;8.630;2023-01-28T06:52:10;100905.66;;;2.46;100.00
22872;BME280;11603;44.910;8.630;2023-01-28T06:54:35;100912.78;;;2.43;100.00
22872;BME280;11603;44.910;8.630;2023-01-28T06:57:01;100898.81;;;2.38;100.00
22872;BME280;11603;44.910;8.630;2023-01-28T06:59:26;100893.66;;;2.33;100.00
22872;BME280;11603;44.910;8.630;2023-01-28T07:01:51;100891.13;;;2.29;100.00
22872;BME280;11603;44.910;8.630;2023-01-28T07:04:17;100895.66;;;2.24;100.00
22872;BME280;11603;44.910;8.630;2023-01-28T07:06:42;100896.66;;;2.18;100.00
22872;BME280;11603;44.910;8.630;2023-01-28T07:09:09;100894.06;;;2.15;100.00
22872;BME280;11603;44.910;8.630;2023-01-28T07:11:35;100895.78;;;2.18;100.00
22872;BME280;11603;44.910;8.630;2023-01-28T07:14:00;100906.50;;;2.10;100.00
22872;BME280;11603;44.910;8.630;2023-01-28T07:16:26;100906.56;;;2.08;100.00
22872;BME280;11603;44.910;8.630;2023-01-28T07:18:51;100908.34;;;2.06;100.00
22872;BME280;11603;44.910;8.630;2023-01-28T07:21:17;100911.69;;;2.15;100.00
22872;BME280;11603;44.910;8.630;2023-01-28T07:23:42;100914.06;;;2.25;100.00
22872;BME280;11603;44.910;8.630;2023-01-28T07:26:08;100908.88;;;2.22;100.00
22872;BME280;11603;44.910;8.630;2023-01-28T07:28:33;100917.53;;;2.29;100.00
22872;BME280;11603;44.910;8.630;2023-01-28T07:30:59;100913.81;;;2.36;100.00
22872;BME280;11603;44.910;8.630;2023-01-28T07:33:24;100918.19;;;2.37;100.00
22872;BME280;11603;44.910;8.630;2023-01-28T07:35:50;100921.72;;;2.37;100.00
22872;BME280;11603;44.910;8.630;2023-01-28T07:38:15;100922.59;;;2.36;100.00
22872;BME280;11603;44.910;8.630;2023-01-28T07:40:40;100934.00;;;2.38;100.00
22872;BME280;11603;44.910;8.630;2023-01-28T07:43:10;100941.91;;;2.40;100.00
22872;BME280;11603;44.910;8.630;2023-01-28T07:45:38;100951.47;;;2.44;100.00
22872;BME280;11603;44.910;8.630;2023-01-28T07:48:06;100959.16;;;2.54;100.00
22872;BME280;11603;44.910;8.630;2023-01-28T07:50:33;100964.91;;;2.72;100.00
22872;BME280;11603;44.910;8.630;2023-01-28T07:53:04;100965.97;;;2.63;100.00
22872;BME280;11603;44.910;8.630;2023-01-28T07:55:30;100967.53;;;2.35;100.00
22872;BME280;11603;44.910;8.630;2023-01-28T07:57:57;100977.13;;;2.39;100.00
22872;BME280;11603;44.910;8.630;2023-01-28T08:00:24;100985.81;;;2.44;100.00
22872;BME280;11603;44.910;8.630;2023-01-28T08:03:04;100990.81;;;2.56;100.00
22872;BME280;11603;44.910;8.630;2023-01-28T08:05:40;100981.66;;;2.32;100.00
22872;BME280;11603;44.910;8.630;2023-01-28T08:08:08;100997.81;;;2.57;100.00
22872;BME280;11603;44.910;8.630;2023-01-28T08:10:34;100995.50;;;2.43;100.00
22872;BME280;11603;44.910;8.630;2023-01-28T08:13:00;100992.75;;;2.48;100.00
22872;BME280;11603;44.910;8.630;2023-01-28T08:15:26;100987.47;;;2.46;100.00
22872;BME280;11603;44.910;8.630;2023-01-28T08:17:56;100984.00;;;2.46;100.00
22872;BME280;11603;44.910;8.630;2023-01-28T08:20:23;100988.59;;;2.36;100.00
22872;BME280;11603;44.910;8.630;2023-01-28T08:22:48;100994.63;;;2.41;100.00
22872;BME280;11603;44.910;8.630;2023-01-28T08:25:14;101003.31;;;2.46;100.00
22872;BME280;11603;44.910;8.630;2023-01-28T08:27:39;101006.78;;;2.50;100.00
22872;BME280;11603;44.910;8.630;2023-01-28T08:30:06;101008.41;;;2.55;100.00
22872;BME280;11603;44.910;8.630;2023-01-28T08:32:33;101020.44;;;2.67;100.00
22872;BME280;11603;44.910;8.630;2023-01-28T08:34:59;101011.53;;;2.73;100.00
22872;BME280;11603;44.910;8.630;2023-01-28T08:37:25;101005.19;;;2.80;100.00
22872;BME280;11603;44.910;8.630;2023-01-28T08:39:50;101003.19;;;2.89;100.00
22872;BME280;11603;44.910;8.630;2023-01-28T08:42:16;101008.22;;;3.00;100.00
22872;BME280;11603;44.910;8.630;2023-01-28T08:44:41;101001.25;;;2.97;100.00
22872;BME280;11603;44.910;8.630;2023-01-28T08:47:07;101006.53;;;2.97;100.00
22872;BME280;11603;44.910;8.630;2023-01-28T08:49:32;101009.72;;;3.10;100.00
22872;BME280;11603;44.910;8.630;2023-01-28T08:51:58;101008.06;;;3.08;100.00
22872;BME280;11603;44.910;8.630;2023-01-28T08:54:23;101018.47;;;3.14;100.00
22872;BME280;11603;44.910;8.630;2023-01-28T08:56:49;101031.09;;;3.36;100.00
22872;BME280;11603;44.910;8.630;2023-01-28T08:59:16;101037.47;;;3.62;100.00
22872;BME280;11603;44.910;8.630;2023-01-28T09:01:42;101026.22;;;3.55;100.00
22872;BME280;11603;44.910;8.630;2023-01-28T09:04:07;101027.72;;;3.30;100.00
22872;BME280;11603;44.910;8.630;2023-01-28T09:06:33;101026.81;;;3.31;100.00
22872;BME280;11603;44.910;8.630;2023-01-28T09:08:59;101033.59;;;3.42;100.00
22872;BME280;11603;44.910;8.630;2023-01-28T09:11:27;101039.50;;;3.52;100.00
22872;BME280;11603;44.910;8.630;2023-01-28T09:13:52;101037.13;;;3.41;100.00
22872;BME280;11603;44.910;8.630;2023-01-28T09:16:18;101050.94;;;3.53;100.00
22872;BME280;11603;44.910;8.630;2023-01-28T09:18:43;101056.63;;;3.71;100.00
22872;BME280;11603;44.910;8.630;2023-01-28T09:21:09;101058.16;;;3.80;100.00
22872;BME280;11603;44.910;8.630;2023-01-28T09:23:36;101067.84;;;3.81;100.00
22872;BME280;11603;44.910;8.630;2023-01-28T09:26:03;101073.41;;;4.03;100.00
22872;BME280;11603;44.910;8.630;2023-01-28T09:28:29;101074.78;;;4.17;100.00
22872;BME280;11603;44.910;8.630;2023-01-28T09:31:06;101068.50;;;4.20;100.00
22872;BME280;11603;44.910;8.630;2023-01-28T09:33:32;101066.38;;;4.33;100.00
22872;BME280;11603;44.910;8.630;2023-01-28T09:36:02;101061.38;;;4.53;100.00
22872;BME280;11603;44.910;8.630;2023-01-28T09:38:29;101056.25;;;4.47;100.00
22872;BME280;11603;44.910;8.630;2023-01-28T09:40:55;101061.56;;;4.45;100.00
22872;BME280;11603;44.910;8.630;2023-01-28T09:43:43;101070.22;;;4.52;100.00
22872;BME280;11603;44.910;8.630;2023-01-28T09:46:13;101067.50;;;4.55;100.00
22872;BME280;11603;44.910;8.630;2023-01-28T09:48:44;101069.53;;;4.75;100.00
22872;BME280;11603;44.910;8.630;2023-01-28T09:51:26;101053.34;;;5.11;100.00
22872;BME280;11603;44.910;8.630;2023-01-28T09:53:55;101065.50;;;4.91;100.00
22872;BME280;11603;44.910;8.630;2023-01-28T09:56:29;101064.69;;;5.43;100.00
22872;BME280;11603;44.910;8.630;2023-01-28T09:59:14;101066.44;;;5.69;100.00
22872;BME280;11603;44.910;8.630;2023-01-28T10:05:02;101057.19;;;6.07;100.00
22872;BME280;11603;44.910;8.630;2023-01-28T10:07:57;101060.88;;;6.49;100.00
22872;BME280;11603;44.910;8.630;2023-01-28T10:10:31;101062.97;;;6.86;100.00
22872;BME280;11603;44.910;8.630;2023-01-28T10:18:10;101046.44;;;7.43;100.00
22872;BME280;11603;44.910;8.630;2023-01-28T10:21:17;101047.22;;;7.47;100.00
22872;BME280;11603;44.910;8.630;2023-01-28T10:23:58;101052.06;;;7.15;100.00
22872;BME280;11603;44.910;8.630;2023-01-28T10:26:32;101058.31;;;7.56;100.00
22872;BME280;11603;44.910;8.630;2023-01-28T10:29:03;101053.88;;;7.97;100.00
22872;BME280;11603;44.910;8.630;2023-01-28T10:31:34;101054.75;;;7.98;100.00
22872;BME280;11603;44.910;8.630;2023-01-28T10:34:01;101043.00;;;8.02;100.00
22872;BME280;11603;44.910;8.630;2023-01-28T10:36:28;101049.75;;;8.31;100.00
22872;BME280;11603;44.910;8.630;2023-01-28T10:38:54;101040.19;;;8.45;100.00
22872;BME280;11603;44.910;8.630;2023-01-28T10:41:21;101033.84;;;8.67;100.00
22872;BME280;11603;44.910;8.630;2023-01-28T10:43:48;101042.47;;;8.53;100.00
22872;BME280;11603;44.910;8.630;2023-01-28T10:46:22;101039.53;;;8.59;100.00
22872;BME280;11603;44.910;8.630;2023-01-28T10:48:59;101037.31;;;8.69;100.00
22872;BME280;11603;44.910;8.630;2023-01-28T10:51:43;101034.84;;;8.83;100.00
22872;BME280;11603;44.910;8.630;2023-01-28T10:54:19;101032.53;;;8.94;100.00
22872;BME280;11603;44.910;8.630;2023-01-28T10:56:48;101034.63;;;8.87;100.00
22872;BME280;11603;44.910;8.630;2023-01-28T10:59:25;101029.72;;;8.97;100.00
22872;BME280;11603;44.910;8.630;2023-01-28T11:04:22;101035.78;;;9.37;100.00
22872;BME280;11603;44.910;8.630;2023-01-28T11:07:01;101035.13;;;9.31;100.00
22872;BME280;11603;44.910;8.630;2023-01-28T11:09:29;101024.06;;;9.39;100.00
22872;BME280;11603;44.910;8.630;2023-01-28T11:11:56;101017.38;;;9.30;100.00
22872;BME280;11603;44.910;8.630;2023-01-28T11:14:26;101018.47;;;9.44;100.00
22872;BME280;11603;44.910;8.630;2023-01-28T11:16:53;101010.53;;;9.42;100.00
22872;BME280;11603;44.910;8.630;2023-01-28T11:19:28;101007.25;;;9.54;99.12
22872;BME280;11603;44.910;8.630;2023-01-28T11:21:55;101005.00;;;9.47;99.06
22872;BME280;11603;44.910;8.630;2023-01-28T11:24:25;100982.09;;;9.07;100.00
22872;BME280;11603;44.910;8.630;2023-01-28T11:26:54;100980.41;;;9.40;100.00
22872;BME280;11603;44.910;8.630;2023-01-28T11:31:46;100982.28;;;9.72;97.73
22872;BME280;11603;44.910;8.630;2023-01-28T11:34:15;100975.56;;;9.81;97.13
22872;BME280;11603;44.910;8.630;2023-01-28T11:36:49;100964.13;;;9.95;93.96
22872;BME280;11603;44.910;8.630;2023-01-28T11:39:23;100967.94;;;9.73;94.87
22872;BME280;11603;44.910;8.630;2023-01-28T11:41:51;100978.84;;;9.36;99.16
22872;BME280;11603;44.910;8.630;2023-01-28T11:44:25;100961.38;;;9.63;97.72
22872;BME280;11603;44.910;8.630;2023-01-28T11:47:18;100956.84;;;9.98;93.04
22872;BME280;11603;44.910;8.630;2023-01-28T11:55:48;100948.50;;;9.71;93.79
22872;BME280;11603;44.910;8.630;2023-01-28T11:58:22;100934.94;;;9.42;96.18
22872;BME280;11603;44.910;8.630;2023-01-28T12:01:15;100936.91;;;9.21;98.45
22872;BME280;11603;44.910;8.630;2023-01-28T12:12:42;100913.66;;;10.06;93.93
22872;BME280;11603;44.910;8.630;2023-01-28T12:15:25;100920.31;;;10.14;95.22
22872;BME280;11603;44.910;8.630;2023-01-28T12:20:54;100901.69;;;10.13;95.18
22872;BME280;11603;44.910;8.630;2023-01-28T12:29:00;100903.28;;;10.00;95.64
22872;BME280;11603;44.910;8.630;2023-01-28T12:44:31;100889.97;;;10.31;91.43
22872;BME280;11603;44.910;8.630;2023-01-28T12:47:09;100884.03;;;10.57;89.12
22872;BME280;11603;44.910;8.630;2023-01-28T12:49:41;100887.72;;;10.71;86.20
22872;BME280;11603;44.910;8.630;2023-01-28T12:52:33;100881.25;;;10.59;86.27
22872;BME280;11603;44.910;8.630;2023-01-28T12:55:12;100884.88;;;10.74;85.16
22872;BME280;11603;44.910;8.630;2023-01-28T12:57:40;100880.97;;;10.79;83.67
22872;BME280;11603;44.910;8.630;2023-01-28T13:02:38;100881.44;;;10.72;87.08
22872;BME280;11603;44.910;8.630;2023-01-28T13:07:57;100873.38;;;10.87;87.88
22872;BME280;11603;44.910;8.630;2023-01-28T13:10:31;100871.72;;;10.85;82.12
22872;BME280;11603;44.910;8.630;2023-01-28T13:13:02;100869.28;;;10.96;75.26
22872;BME280;11603;44.910;8.630;2023-01-28T13:15:29;100868.50;;;10.94;75.29
22872;BME280;11603;44.910;8.630;2023-01-28T13:18:01;100864.13;;;10.93;75.39
22872;BME280;11603;44.910;8.630;2023-01-28T13:20:46;100869.50;;;10.77;71.96
22872;BME280;11603;44.910;8.630;2023-01-28T13:26:08;100848.66;;;10.98;70.25
22872;BME280;11603;44.910;8.630;2023-01-28T13:28:34;100850.50;;;10.82;68.00
22872;BME280;11603;44.910;8.630;2023-01-28T13:31:08;100849.16;;;10.89;67.95
22872;BME280;11603;44.910;8.630;2023-01-28T13:33:39;100851.31;;;10.98;67.10
22872;BME280;11603;44.910;8.630;2023-01-28T13:38:45;100850.81;;;10.91;65.53
22872;BME280;11603;44.910;8.630;2023-01-28T13:41:11;100853.09;;;10.83;66.01
22872;BME280;11603;44.910;8.630;2023-01-28T13:43:39;100850.16;;;10.88;65.59
22872;BME280;11603;44.910;8.630;2023-01-28T13:46:12;100857.88;;;10.62;66.45
22872;BME280;11603;44.910;8.630;2023-01-28T13:48:55;100854.13;;;10.81;66.29
22872;BME280;11603;44.910;8.630;2023-01-28T13:51:31;100861.81;;;10.87;65.84
22872;BME280;11603;44.910;8.630;2023-01-28T13:54:01;100861.59;;;10.90;64.72
22872;BME280;11603;44.910;8.630;2023-01-28T13:56:38;100862.19;;;10.95;64.11
22872;BME280;11603;44.910;8.630;2023-01-28T14:01:59;100855.25;;;11.07;62.72
22872;BME280;11603;44.910;8.630;2023-01-28T14:18:35;100861.91;;;11.43;59.45
22872;BME280;11603;44.910;8.630;2023-01-28T14:21:13;100872.31;;;11.20;59.19
22872;BME280;11603;44.910;8.630;2023-01-28T14:23:51;100869.56;;;11.35;58.81
22872;BME280;11603;44.910;8.630;2023-01-28T14:31:38;100866.81;;;11.65;57.81
22872;BME280;11603;44.910;8.630;2023-01-28T14:34:13;100873.72;;;11.55;57.83
22872;BME280;11603;44.910;8.630;2023-01-28T14:36:43;100867.56;;;11.39;57.73
22872;BME280;11603;44.910;8.630;2023-01-28T14:39:16;100870.03;;;11.42;57.40
22872;BME280;11603;44.910;8.630;2023-01-28T14:41:44;100868.28;;;11.13;57.32
22872;BME280;11603;44.910;8.630;2023-01-28T14:44:22;100862.97;;;10.97;57.84
22872;BME280;11603;44.910;8.630;2023-01-28T14:47:00;100877.34;;;11.10;58.01
22872;BME280;11603;44.910;8.630;2023-01-28T14:52:30;100877.13;;;11.29;58.01
22872;BME280;11603;44.910;8.630;2023-01-28T14:55:03;100879.22;;;11.24;57.85
22872;BME280;11603;44.910;8.630;2023-01-28T14:57:45;100882.88;;;11.07;58.06
22872;BME280;11603;44.910;8.630;2023-01-28T15:00:26;100881.16;;;11.06;57.86
22872;BME280;11603;44.910;8.630;2023-01-28T15:02:52;100885.00;;;11.16;57.94
22872;BME280;11603;44.910;8.630;2023-01-28T15:05:24;100877.69;;;11.20;57.00